Time;durP1;ratioP1;P1;durP2;ratioP2;P2;SDS_P1;SDS_P2;PMS_P1;PMS_P2;Temp;Humidity;BMP_temperature;BMP_pressure;BME280_temperature;BME280_humidity;BME280_pressure;Samples;Min_cycle;Max_cycle;Signal;HPM_P1;HPM_P2
2021/04/29 00:00:08;;;;;;;1.98;1.83;;;;;;;;;;5092535;28;20542;-73
2021/04/29 00:02:35;;;;;;;1.33;1.23;;;;;;;;;;5093009;28;20053;-73
2021/04/29 00:05:01;;;;;;;1.10;1.10;;;;;;;;;;5092734;28;20059;-74
2021/04/29 00:07:27;;;;;;;2.28;1.92;;;;;;;;;;5092550;28;20487;-73
2021/04/29 00:09:53;;;;;;;1.48;1.38;;;;;;;;;;5091752;28;20030;-73
2021/04/29 00:12:19;;;;;;;3.22;1.30;;;;;;;;;;5092335;28;20042;-73
2021/04/29 00:14:45;;;;;;;1.70;1.52;;;;;;;;;;5091824;28;20119;-72
2021/04/29 00:17:11;;;;;;;1.25;1.08;;;;;;;;;;5092342;28;20405;-73
2021/04/29 00:19:37;;;;;;;1.00;1.00;;;;;;;;;;5092091;28;20070;-73
2021/04/29 00:22:04;;;;;;;1.42;1.33;;;;;;;;;;5091867;28;20028;-73
2021/04/29 00:24:30;;;;;;;1.30;1.20;;;;;;;;;;5092124;28;20051;-73
2021/04/29 00:26:56;;;;;;;2.10;1.00;;;;;;;;;;5091605;28;20708;-73
2021/04/29 00:29:22;;;;;;;1.13;1.08;;;;;;;;;;5092137;28;20036;-73
2021/04/29 00:31:48;;;;;;;1.55;1.45;;;;;;;;;;5091553;28;20429;-73
2021/04/29 00:34:14;;;;;;;1.65;1.55;;;;;;;;;;5092286;28;20028;-73
2021/04/29 00:36:40;;;;;;;1.25;1.13;;;;;;;;;;5091288;28;20043;-73
2021/04/29 00:39:06;;;;;;;1.30;1.17;;;;;;;;;;5092246;28;20024;-73
2021/04/29 00:41:32;;;;;;;1.23;1.10;;;;;;;;;;5091725;28;20138;-73
2021/04/29 00:43:58;;;;;;;1.60;1.48;;;;;;;;;;5091417;28;20051;-73
2021/04/29 00:46:24;;;;;;;1.45;1.35;;;;;;;;;;5092141;28;20050;-73
2021/04/29 00:48:51;;;;;;;1.52;1.42;;;;;;;;;;5091412;28;20371;-73
2021/04/29 00:51:19;;;;;;;1.13;1.02;;;;;;;;;;5091711;28;20099;-73
2021/04/29 00:53:46;;;;;;;1.27;1.17;;;;;;;;;;5091083;28;20024;-73
2021/04/29 00:56:13;;;;;;;1.23;1.13;;;;;;;;;;5091735;28;20042;-73
2021/04/29 00:58:39;;;;;;;1.33;1.23;;;;;;;;;;5090024;28;20028;-72
2021/04/29 01:01:06;;;;;;;1.00;1.00;;;;;;;;;;5091071;28;20467;-73
2021/04/29 01:03:33;;;;;;;1.02;0.90;;;;;;;;;;5091581;28;20032;-73
2021/04/29 01:06:06;;;;;;;1.95;1.63;;;;;;;;;;5090807;28;20592;-73
2021/04/29 01:08:40;;;;;;;0.88;0.82;;;;;;;;;;5091294;28;20024;-73
2021/04/29 01:11:16;;;;;;;0.75;0.75;;;;;;;;;;5091047;28;20074;-73
2021/04/29 01:13:44;;;;;;;2.63;1.70;;;;;;;;;;5090465;28;20020;-73
2021/04/29 01:16:11;;;;;;;1.05;0.93;;;;;;;;;;5091227;28;20429;-74
2021/04/29 01:18:38;;;;;;;1.90;1.48;;;;;;;;;;5090727;28;20060;-72
2021/04/29 01:21:13;;;;;;;1.35;1.27;;;;;;;;;;5091018;28;20054;-73
2021/04/29 01:23:45;;;;;;;1.27;1.17;;;;;;;;;;5090644;28;20044;-72
2021/04/29 01:26:11;;;;;;;2.22;1.27;;;;;;;;;;5090846;28;20615;-73
2021/04/29 01:28:37;;;;;;;1.30;1.20;;;;;;;;;;5090674;28;20115;-72
2021/04/29 01:31:03;;;;;;;1.45;1.35;;;;;;;;;;5090903;28;20118;-72
2021/04/29 01:33:30;;;;;;;1.50;1.40;;;;;;;;;;5091062;28;20024;-73
2021/04/29 01:35:56;;;;;;;1.20;1.15;;;;;;;;;;5090590;28;20412;-73
2021/04/29 01:38:22;;;;;;;1.42;1.33;;;;;;;;;;5090170;28;20425;-73
2021/04/29 01:40:49;;;;;;;1.90;1.42;;;;;;;;;;5089562;28;20441;-73
2021/04/29 01:43:15;;;;;;;1.27;1.17;;;;;;;;;;5091071;28;20028;-73
2021/04/29 01:45:42;;;;;;;1.38;1.27;;;;;;;;;;5090397;28;20024;-72
2021/04/29 01:48:09;;;;;;;1.10;1.00;;;;;;;;;;5090672;28;20028;-72
2021/04/29 01:50:35;;;;;;;1.20;1.10;;;;;;;;;;5090284;28;20085;-72
2021/04/29 01:53:02;;;;;;;1.17;1.08;;;;;;;;;;5090277;28;20024;-73
2021/04/29 01:55:28;;;;;;;1.58;1.48;;;;;;;;;;5090663;28;20489;-73
2021/04/29 01:57:55;;;;;;;0.82;0.80;;;;;;;;;;5089913;28;20028;-73
2021/04/29 02:00:21;;;;;;;1.30;1.20;;;;;;;;;;5090421;28;20035;-73
2021/04/29 02:02:47;;;;;;;1.63;1.52;;;;;;;;;;5089857;28;20107;-73
2021/04/29 02:05:14;;;;;;;1.30;1.10;;;;;;;;;;5090638;28;20071;-73
2021/04/29 02:07:40;;;;;;;1.33;1.23;;;;;;;;;;5089888;28;20032;-73
2021/04/29 02:10:06;;;;;;;1.77;1.55;;;;;;;;;;5089738;28;20032;-73
2021/04/29 02:12:34;;;;;;;1.88;1.20;;;;;;;;;;5090614;28;20386;-73
2021/04/29 02:15:01;;;;;;;1.65;1.55;;;;;;;;;;5089845;28;20043;-73
2021/04/29 02:17:49;;;;;;;1.00;0.80;;;;;;;;;;5090378;28;20042;-73
2021/04/29 02:20:16;;;;;;;4.03;1.83;;;;;;;;;;5090173;28;20032;-73
2021/04/29 02:22:43;;;;;;;1.00;1.00;;;;;;;;;;5089209;28;20126;-72
2021/04/29 02:25:10;;;;;;;2.72;1.00;;;;;;;;;;5089743;28;20502;-73
2021/04/29 02:27:36;;;;;;;1.23;1.23;;;;;;;;;;5090108;28;20028;-72
2021/04/29 02:30:10;;;;;;;1.10;1.00;;;;;;;;;;5089284;28;20032;-72
2021/04/29 02:32:36;;;;;;;1.40;1.30;;;;;;;;;;5089859;28;20073;-73
2021/04/29 02:35:05;;;;;;;2.25;1.42;;;;;;;;;;5089793;28;20043;-72
2021/04/29 02:37:31;;;;;;;1.35;0.98;;;;;;;;;;5089821;28;20054;-73
2021/04/29 02:39:57;;;;;;;1.55;1.45;;;;;;;;;;5089003;28;20055;-73
2021/04/29 02:42:23;;;;;;;1.40;1.30;;;;;;;;;;5089921;28;20020;-73
2021/04/29 02:44:49;;;;;;;1.27;1.23;;;;;;;;;;5089548;28;20036;-74
2021/04/29 02:47:16;;;;;;;1.15;1.15;;;;;;;;;;5090458;28;20107;-74
2021/04/29 02:49:42;;;;;;;1.15;1.13;;;;;;;;;;5089375;28;20108;-73
2021/04/29 02:52:09;;;;;;;1.58;1.42;;;;;;;;;;5090161;28;20032;-74
2021/04/29 02:54:35;;;;;;;1.20;1.15;;;;;;;;;;5090045;28;20119;-73
2021/04/29 02:57:02;;;;;;;1.52;1.42;;;;;;;;;;5089680;28;20358;-74
2021/04/29 02:59:28;;;;;;;1.13;0.95;;;;;;;;;;5089769;28;20039;-74
2021/04/29 03:01:54;;;;;;;1.08;0.90;;;;;;;;;;5088993;28;20052;-73
2021/04/29 03:04:20;;;;;;;1.30;1.20;;;;;;;;;;5089628;28;20028;-74
2021/04/29 03:06:46;;;;;;;1.42;0.77;;;;;;;;;;5088838;28;20024;-73
2021/04/29 03:09:12;;;;;;;1.00;1.00;;;;;;;;;;5089966;28;20028;-74
2021/04/29 03:11:38;;;;;;;1.70;1.60;;;;;;;;;;5089016;28;20498;-73
2021/04/29 03:14:05;;;;;;;0.98;0.90;;;;;;;;;;5089516;28;20024;-74
2021/04/29 03:16:31;;;;;;;2.05;1.48;;;;;;;;;;5089792;28;20035;-74
2021/04/29 03:18:57;;;;;;;1.08;1.00;;;;;;;;;;5088852;28;20032;-73
2021/04/29 03:21:23;;;;;;;1.40;1.30;;;;;;;;;;5090436;28;20107;-74
2021/04/29 03:23:49;;;;;;;1.67;1.10;;;;;;;;;;5092682;28;20028;-74
2021/04/29 03:26:17;;;;;;;1.52;1.08;;;;;;;;;;5093591;28;20031;-74
2021/04/29 03:28:43;;;;;;;1.65;1.30;;;;;;;;;;5092820;28;20045;-74
2021/04/29 03:31:09;;;;;;;0.88;0.88;;;;;;;;;;5093070;28;20066;-74
2021/04/29 03:33:35;;;;;;;1.40;1.30;;;;;;;;;;5093205;28;20491;-74
2021/04/29 03:36:01;;;;;;;1.10;1.00;;;;;;;;;;5092750;28;20036;-74
2021/04/29 03:38:27;;;;;;;1.75;1.30;;;;;;;;;;5093341;28;20028;-73
2021/04/29 03:40:53;;;;;;;1.30;1.20;;;;;;;;;;5092256;28;20044;-74
2021/04/29 03:43:19;;;;;;;1.67;1.58;;;;;;;;;;5093142;28;20070;-74
2021/04/29 03:45:45;;;;;;;1.33;1.23;;;;;;;;;;5092785;28;20034;-73
2021/04/29 03:48:11;;;;;;;2.22;1.33;;;;;;;;;;5093199;28;20077;-74
2021/04/29 03:50:37;;;;;;;1.30;1.20;;;;;;;;;;5092371;28;20048;-73
2021/04/29 03:53:03;;;;;;;1.70;1.60;;;;;;;;;;5092605;28;20028;-74
2021/04/29 03:55:29;;;;;;;2.15;1.17;;;;;;;;;;5092952;28;20020;-74
2021/04/29 03:57:55;;;;;;;1.10;1.00;;;;;;;;;;5092459;28;20462;-74
2021/04/29 04:00:22;;;;;;;1.20;1.10;;;;;;;;;;5092795;28;20162;-74
2021/04/29 04:02:48;;;;;;;1.73;1.00;;;;;;;;;;5092072;28;20031;-74
2021/04/29 04:05:15;;;;;;;1.77;1.58;;;;;;;;;;5092342;28;20119;-74
2021/04/29 04:07:41;;;;;;;2.00;1.90;;;;;;;;;;5091796;28;20458;-74
2021/04/29 04:10:07;;;;;;;0.98;0.98;;;;;;;;;;5092372;28;20479;-74
2021/04/29 04:12:34;;;;;;;1.33;1.25;;;;;;;;;;5092333;28;20067;-74
2021/04/29 04:15:00;;;;;;;0.80;0.80;;;;;;;;;;5092161;28;20042;-74
2021/04/29 04:17:26;;;;;;;2.47;1.30;;;;;;;;;;5092552;28;20028;-74
2021/04/29 04:19:52;;;;;;;1.05;1.02;;;;;;;;;;5091819;28;20020;-74
2021/04/29 04:22:18;;;;;;;1.40;1.27;;;;;;;;;;5092484;28;20064;-74
2021/04/29 04:24:44;;;;;;;1.20;1.15;;;;;;;;;;5091553;28;20027;-73
2021/04/29 04:27:10;;;;;;;0.98;0.98;;;;;;;;;;5092479;28;20054;-74
2021/04/29 04:29:36;;;;;;;1.20;1.02;;;;;;;;;;5091847;28;20509;-73
2021/04/29 04:32:03;;;;;;;1.35;1.25;;;;;;;;;;5091505;28;20028;-73
2021/04/29 04:34:29;;;;;;;1.45;1.08;;;;;;;;;;5092252;28;20065;-73
2021/04/29 04:36:55;;;;;;;1.55;1.40;;;;;;;;;;5091216;28;20604;-73
2021/04/29 04:39:21;;;;;;;2.00;1.13;;;;;;;;;;5091992;28;20444;-74
2021/04/29 04:41:47;;;;;;;1.23;1.10;;;;;;;;;;5091038;28;20028;-73
2021/04/29 04:44:13;;;;;;;1.63;1.17;;;;;;;;;;5091809;28;20029;-74
2021/04/29 04:46:39;;;;;;;1.58;1.48;;;;;;;;;;5091383;28;20024;-73
2021/04/29 04:49:05;;;;;;;1.30;1.20;;;;;;;;;;5091396;28;20016;-73
2021/04/29 04:51:31;;;;;;;1.25;1.02;;;;;;;;;;5091753;28;20032;-73
2021/04/29 04:53:58;;;;;;;1.52;1.42;;;;;;;;;;5090923;28;20024;-73
2021/04/29 04:56:24;;;;;;;1.20;1.15;;;;;;;;;;5091625;28;20415;-73
2021/04/29 04:58:50;;;;;;;1.98;1.77;;;;;;;;;;5090675;28;20036;-73
2021/04/29 05:01:16;;;;;;;1.00;0.93;;;;;;;;;;5091626;28;20145;-73
2021/04/29 05:03:42;;;;;;;1.48;1.38;;;;;;;;;;5088690;28;20470;-73
2021/04/29 05:06:08;;;;;;;1.35;1.25;;;;;;;;;;5090213;28;20103;-74
2021/04/29 05:08:34;;;;;;;3.75;1.58;;;;;;;;;;5091226;28;20085;-74
2021/04/29 05:11:00;;;;;;;1.13;0.90;;;;;;;;;;5090488;28;20067;-73
2021/04/29 05:13:26;;;;;;;1.00;0.90;;;;;;;;;;5091447;28;20056;-74
2021/04/29 05:15:52;;;;;;;1.00;1.00;;;;;;;;;;5090829;28;20107;-73
2021/04/29 05:18:18;;;;;;;1.67;1.58;;;;;;;;;;5091504;28;20028;-74
2021/04/29 05:20:45;;;;;;;2.08;0.88;;;;;;;;;;5090448;28;20425;-73
2021/04/29 05:23:11;;;;;;;0.70;0.70;;;;;;;;;;5091240;28;20024;-74
2021/04/29 05:25:37;;;;;;;1.48;1.38;;;;;;;;;;5091185;28;20455;-73
2021/04/29 05:28:03;;;;;;;0.80;0.80;;;;;;;;;;5091233;28;20054;-74
2021/04/29 05:30:30;;;;;;;1.00;1.00;;;;;;;;;;5090737;28;20456;-73
2021/04/29 05:32:56;;;;;;;1.85;1.30;;;;;;;;;;5090161;28;20031;-73
2021/04/29 05:35:22;;;;;;;1.50;1.40;;;;;;;;;;5090691;28;20060;-74
2021/04/29 05:37:48;;;;;;;0.82;0.82;;;;;;;;;;5090067;28;20127;-73
2021/04/29 05:40:15;;;;;;;0.73;0.73;;;;;;;;;;5090599;28;20044;-74
2021/04/29 05:42:41;;;;;;;1.52;0.93;;;;;;;;;;5090227;28;20036;-73
2021/04/29 05:45:08;;;;;;;1.55;1.45;;;;;;;;;;5090559;28;20100;-73
2021/04/29 05:47:34;;;;;;;0.95;0.95;;;;;;;;;;5087327;28;20510;-73
2021/04/29 05:50:00;;;;;;;2.13;1.42;;;;;;;;;;5088374;28;20023;-74
2021/04/29 05:52:26;;;;;;;1.70;0.63;;;;;;;;;;5090681;28;20038;-74
2021/04/29 05:54:52;;;;;;;0.90;0.90;;;;;;;;;;5098274;28;20102;-74
2021/04/29 05:57:18;;;;;;;1.42;1.13;;;;;;;;;;5110786;28;20412;-76
2021/04/29 05:59:44;;;;;;;0.80;0.80;;;;;;;;;;5103261;28;20051;-73
2021/04/29 06:02:10;;;;;;;2.08;0.85;;;;;;;;;;5089813;28;20046;-73
2021/04/29 06:04:36;;;;;;;2.00;0.82;;;;;;;;;;5089461;28;20491;-72
2021/04/29 06:07:02;;;;;;;0.70;0.70;;;;;;;;;;5109611;28;20066;-75
2021/04/29 06:09:28;;;;;;;2.55;1.58;;;;;;;;;;5092014;28;20150;-74
2021/04/29 06:11:55;;;;;;;1.33;0.80;;;;;;;;;;5089176;28;20023;-75
2021/04/29 06:14:21;;;;;;;1.30;1.20;;;;;;;;;;5089866;28;20020;-75
2021/04/29 06:16:47;;;;;;;1.17;1.08;;;;;;;;;;5086898;28;20035;-75
2021/04/29 06:19:13;;;;;;;1.05;0.90;;;;;;;;;;5088221;28;20028;-74
2021/04/29 06:21:39;;;;;;;0.90;0.88;;;;;;;;;;5084781;28;20503;-74
2021/04/29 06:24:06;;;;;;;1.85;1.05;;;;;;;;;;5073320;28;20463;-74
2021/04/29 06:26:32;;;;;;;1.48;1.30;;;;;;;;;;5079498;28;20024;-74
2021/04/29 06:28:58;;;;;;;1.17;1.08;;;;;;;;;;5087247;28;20036;-74
2021/04/29 06:31:24;;;;;;;3.90;1.63;;;;;;;;;;5098288;28;20027;-74
2021/04/29 06:33:50;;;;;;;1.58;1.20;;;;;;;;;;5081086;28;20020;-73
2021/04/29 06:36:16;;;;;;;3.00;1.33;;;;;;;;;;5085742;28;20028;-73
2021/04/29 06:38:42;;;;;;;1.60;1.02;;;;;;;;;;5086122;28;20028;-74
2021/04/29 06:41:08;;;;;;;1.95;1.38;;;;;;;;;;5077651;28;20070;-74
2021/04/29 06:43:35;;;;;;;2.72;1.67;;;;;;;;;;5063862;28;20494;-74
2021/04/29 06:46:01;;;;;;;4.00;2.30;;;;;;;;;;5076263;28;20128;-74
2021/04/29 06:48:27;;;;;;;2.17;1.73;;;;;;;;;;5082245;28;20057;-75
2021/04/29 06:50:53;;;;;;;4.57;1.80;;;;;;;;;;5084397;28;20049;-74
2021/04/29 06:53:19;;;;;;;2.30;1.95;;;;;;;;;;5095798;28;20063;-72
2021/04/29 06:55:45;;;;;;;1.42;1.05;;;;;;;;;;5088565;28;20028;-72
2021/04/29 06:58:11;;;;;;;3.72;2.00;;;;;;;;;;5095098;28;20432;-73
2021/04/29 07:00:38;;;;;;;1.95;1.80;;;;;;;;;;5094044;28;20031;-73
2021/04/29 07:03:04;;;;;;;1.85;1.67;;;;;;;;;;5094208;28;20038;-74
2021/04/29 07:05:30;;;;;;;1.83;1.50;;;;;;;;;;5106858;28;20042;-74
2021/04/29 07:07:57;;;;;;;1.92;1.73;;;;;;;;;;5084445;28;20635;-76
2021/04/29 07:10:23;;;;;;;2.40;1.25;;;;;;;;;;5085729;28;20020;-74
2021/04/29 07:12:50;;;;;;;2.40;1.42;;;;;;;;;;5078910;28;20051;-73
2021/04/29 07:15:16;;;;;;;2.03;1.83;;;;;;;;;;5078463;28;20068;-73
2021/04/29 07:17:43;;;;;;;4.68;1.85;;;;;;;;;;5080166;28;20067;-73
2021/04/29 07:20:10;;;;;;;2.65;1.55;;;;;;;;;;5080594;28;20024;-74
2021/04/29 07:22:37;;;;;;;1.58;1.45;;;;;;;;;;5079821;28;20103;-73
2021/04/29 07:25:03;;;;;;;1.80;1.67;;;;;;;;;;5087371;28;20556;-73
2021/04/29 07:27:29;;;;;;;1.92;1.52;;;;;;;;;;5081307;28;20063;-74
2021/04/29 07:29:56;;;;;;;3.30;1.70;;;;;;;;;;5076609;28;20428;-74
2021/04/29 07:32:22;;;;;;;2.95;1.48;;;;;;;;;;5089673;28;20036;-74
2021/04/29 07:34:48;;;;;;;2.45;1.88;;;;;;;;;;5080567;28;20039;-72
2021/04/29 07:37:14;;;;;;;1.52;1.42;;;;;;;;;;5087878;28;20024;-74
2021/04/29 07:39:40;;;;;;;1.80;1.60;;;;;;;;;;5088499;28;20031;-73
2021/04/29 07:42:06;;;;;;;2.25;2.03;;;;;;;;;;5079638;28;20474;-73
2021/04/29 07:44:32;;;;;;;3.95;2.28;;;;;;;;;;5080394;28;20043;-73
2021/04/29 07:46:59;;;;;;;4.50;1.83;;;;;;;;;;5095742;28;20377;-73
2021/04/29 07:49:26;;;;;;;1.45;1.30;;;;;;;;;;5075142;28;20116;-73
2021/04/29 07:51:52;;;;;;;2.80;1.75;;;;;;;;;;5082720;28;20029;-73
2021/04/29 07:54:18;;;;;;;2.25;2.00;;;;;;;;;;5083743;28;20075;-74
2021/04/29 07:56:44;;;;;;;3.25;1.75;;;;;;;;;;5087676;28;20039;-73
2021/04/29 07:59:11;;;;;;;3.70;1.65;;;;;;;;;;5086172;28;20062;-74
2021/04/29 08:01:37;;;;;;;2.35;1.42;;;;;;;;;;5076482;28;20464;-73
2021/04/29 08:04:03;;;;;;;2.53;2.33;;;;;;;;;;5073468;28;20368;-72
2021/04/29 08:06:29;;;;;;;3.20;1.90;;;;;;;;;;5080900;28;20034;-73
2021/04/29 08:08:56;;;;;;;2.08;1.98;;;;;;;;;;5077061;28;20439;-73
2021/04/29 08:11:22;;;;;;;2.40;1.58;;;;;;;;;;5077420;28;20490;-74
2021/04/29 08:13:48;;;;;;;5.13;2.67;;;;;;;;;;5079449;28;20043;-74
2021/04/29 08:16:14;;;;;;;2.50;1.70;;;;;;;;;;5090159;28;20417;-73
2021/04/29 08:18:40;;;;;;;5.97;2.28;;;;;;;;;;5082631;28;20116;-73
2021/04/29 08:21:08;;;;;;;2.63;1.73;;;;;;;;;;5083162;28;20028;-73
2021/04/29 08:23:34;;;;;;;2.20;1.90;;;;;;;;;;5089814;28;20477;-74
2021/04/29 08:26:00;;;;;;;3.88;2.20;;;;;;;;;;5092654;28;20029;-74
2021/04/29 08:28:26;;;;;;;2.08;1.95;;;;;;;;;;5086714;28;20452;-75
2021/04/29 08:30:52;;;;;;;6.38;2.42;;;;;;;;;;5076706;28;20044;-73
2021/04/29 08:33:19;;;;;;;5.65;1.83;;;;;;;;;;5091304;28;20051;-73
2021/04/29 08:35:45;;;;;;;2.33;2.17;;;;;;;;;;5079967;28;20491;-73
2021/04/29 08:38:11;;;;;;;2.13;1.85;;;;;;;;;;5085513;28;20507;-73
2021/04/29 08:40:37;;;;;;;2.10;1.90;;;;;;;;;;5089888;28;20443;-74
2021/04/29 08:43:03;;;;;;;2.08;1.77;;;;;;;;;;5080970;28;20042;-74
2021/04/29 08:45:33;;;;;;;4.43;2.33;;;;;;;;;;5075808;28;20036;-72
2021/04/29 08:47:59;;;;;;;2.38;1.50;;;;;;;;;;5093268;28;20047;-73
2021/04/29 08:50:27;;;;;;;7.32;1.92;;;;;;;;;;5085023;28;20026;-73
2021/04/29 08:52:53;;;;;;;6.13;2.28;;;;;;;;;;5089944;28;20536;-73
2021/04/29 08:55:21;;;;;;;3.80;2.08;;;;;;;;;;5079273;28;20035;-74
2021/04/29 08:57:47;;;;;;;4.65;2.33;;;;;;;;;;5085704;28;20034;-73
2021/04/29 09:00:14;;;;;;;4.43;2.20;;;;;;;;;;5074100;28;20050;-72
2021/04/29 09:02:41;;;;;;;4.15;1.75;;;;;;;;;;5088411;28;20036;-73
2021/04/29 09:05:13;;;;;;;3.83;1.77;;;;;;;;;;5085986;28;20049;-77
2021/04/29 09:07:40;;;;;;;2.67;2.08;;;;;;;;;;5084349;28;20039;-74
2021/04/29 09:10:09;;;;;;;1.90;1.80;;;;;;;;;;5080695;28;20036;-73
2021/04/29 09:12:43;;;;;;;3.90;2.17;;;;;;;;;;5088524;28;20164;-71
2021/04/29 09:15:20;;;;;;;1.83;1.40;;;;;;;;;;5093930;28;20577;-73
2021/04/29 09:17:46;;;;;;;3.05;1.58;;;;;;;;;;5087110;28;20029;-73
2021/04/29 09:20:13;;;;;;;3.97;2.40;;;;;;;;;;5082990;28;20122;-73
2021/04/29 09:22:39;;;;;;;2.28;2.08;;;;;;;;;;5081159;28;20128;-73
2021/04/29 09:25:14;;;;;;;1.65;1.55;;;;;;;;;;5095184;28;20544;-73
2021/04/29 09:27:40;;;;;;;4.80;2.30;;;;;;;;;;5089931;28;20499;-73
2021/04/29 09:30:06;;;;;;;3.90;2.50;;;;;;;;;;5086376;28;20023;-73
2021/04/29 09:32:33;;;;;;;1.95;1.75;;;;;;;;;;5075106;28;20407;-73
2021/04/29 09:35:00;;;;;;;2.97;2.13;;;;;;;;;;5077322;28;20029;-73
2021/04/29 09:37:31;;;;;;;2.80;1.80;;;;;;;;;;5082962;28;20580;-74
2021/04/29 09:40:05;;;;;;;3.35;1.90;;;;;;;;;;5115187;27;20360;-74
2021/04/29 09:42:33;;;;;;;2.08;1.80;;;;;;;;;;5113009;28;20066;-74
2021/04/29 09:44:59;;;;;;;2.78;1.52;;;;;;;;;;5113139;28;20530;-74
2021/04/29 09:47:26;;;;;;;2.33;2.05;;;;;;;;;;5115734;28;20031;-74
2021/04/29 09:49:52;;;;;;;1.52;1.42;;;;;;;;;;5113670;28;20047;-75
2021/04/29 09:52:18;;;;;;;2.00;1.90;;;;;;;;;;5111953;28;20196;-74
2021/04/29 09:54:44;;;;;;;2.90;1.75;;;;;;;;;;5112983;28;20076;-73
2021/04/29 09:57:14;;;;;;;2.72;1.67;;;;;;;;;;5114861;28;20658;-72
2021/04/29 09:59:55;;;;;;;2.13;1.85;;;;;;;;;;5116122;27;20032;-74
2021/04/29 10:02:21;;;;;;;1.60;1.50;;;;;;;;;;5111443;28;20120;-74
2021/04/29 10:04:47;;;;;;;4.03;1.73;;;;;;;;;;5114024;28;20030;-73
2021/04/29 10:07:15;;;;;;;2.58;2.38;;;;;;;;;;5112104;28;20034;-74
2021/04/29 10:09:42;;;;;;;3.70;1.75;;;;;;;;;;5111926;28;20034;-74
2021/04/29 10:12:12;;;;;;;2.00;1.27;;;;;;;;;;5109825;28;20059;-74
2021/04/29 10:14:57;;;;;;;1.90;1.70;;;;;;;;;;5114407;28;20027;-72
2021/04/29 10:17:23;;;;;;;2.53;1.20;;;;;;;;;;5111436;28;20039;-73
2021/04/29 10:19:53;;;;;;;1.90;1.50;;;;;;;;;;5112533;27;20486;-72
2021/04/29 10:22:20;;;;;;;3.15;1.95;;;;;;;;;;5105787;28;20059;-72
2021/04/29 10:24:47;;;;;;;1.98;1.42;;;;;;;;;;5114416;28;20038;-72
2021/04/29 10:27:16;;;;;;;1.58;1.48;;;;;;;;;;5111087;28;21294;-74
2021/04/29 10:29:43;;;;;;;3.47;1.42;;;;;;;;;;5113755;28;20027;-72
2021/04/29 10:32:12;;;;;;;2.40;1.63;;;;;;;;;;5108614;28;20028;-72
2021/04/29 10:34:39;;;;;;;10.73;2.65;;;;;;;;;;5112776;28;20110;-72
2021/04/29 10:37:15;;;;;;;1.98;1.50;;;;;;;;;;5113788;28;20023;-73
2021/04/29 10:39:55;;;;;;;1.50;1.40;;;;;;;;;;5112638;28;20051;-73
2021/04/29 10:42:21;;;;;;;1.52;1.33;;;;;;;;;;5111581;28;20023;-73
2021/04/29 10:44:58;;;;;;;1.88;1.25;;;;;;;;;;5112420;28;20394;-73
2021/04/29 10:47:25;;;;;;;1.65;1.17;;;;;;;;;;5114023;28;20028;-73
2021/04/29 10:49:52;;;;;;;1.70;1.40;;;;;;;;;;5108351;28;20034;-73
2021/04/29 10:52:18;;;;;;;1.63;1.30;;;;;;;;;;5097754;28;20453;-73
2021/04/29 10:54:51;;;;;;;1.42;1.25;;;;;;;;;;5100082;28;20024;-72
2021/04/29 10:57:18;;;;;;;5.55;1.38;;;;;;;;;;5101045;28;20034;-73
2021/04/29 10:59:49;;;;;;;1.33;1.23;;;;;;;;;;5100302;28;20176;-73
2021/04/29 11:02:21;;;;;;;1.70;1.40;;;;;;;;;;5096836;28;20023;-73
2021/04/29 11:04:51;;;;;;;2.53;1.45;;;;;;;;;;5099121;28;20165;-73
2021/04/29 11:07:17;;;;;;;1.10;1.00;;;;;;;;;;5099302;28;20088;-73
2021/04/29 11:09:43;;;;;;;1.20;1.20;;;;;;;;;;5097960;28;20089;-73
2021/04/29 11:12:10;;;;;;;1.52;1.20;;;;;;;;;;5098174;28;20036;-73
2021/04/29 11:14:38;;;;;;;1.40;1.30;;;;;;;;;;5101170;28;20035;-73
2021/04/29 11:17:04;;;;;;;1.75;1.48;;;;;;;;;;5100421;28;20549;-73
2021/04/29 11:19:48;;;;;;;3.08;1.48;;;;;;;;;;5100559;28;20047;-73
2021/04/29 11:22:34;;;;;;;2.83;0.95;;;;;;;;;;5097161;28;20571;-72
2021/04/29 11:25:01;;;;;;;1.35;1.13;;;;;;;;;;5099456;28;20184;-73
2021/04/29 11:27:34;;;;;;;1.63;1.23;;;;;;;;;;5099165;28;20544;-73
2021/04/29 11:30:06;;;;;;;2.47;1.10;;;;;;;;;;5099904;28;20039;-73
2021/04/29 11:32:33;;;;;;;1.58;1.48;;;;;;;;;;5097174;28;20100;-74
2021/04/29 11:35:00;;;;;;;1.35;1.00;;;;;;;;;;5098126;28;20055;-74
2021/04/29 11:37:26;;;;;;;1.63;1.38;;;;;;;;;;5097228;28;20084;-73
2021/04/29 11:40:00;;;;;;;1.75;0.75;;;;;;;;;;5097134;28;20086;-73
2021/04/29 11:42:30;;;;;;;1.05;0.95;;;;;;;;;;5096547;28;20023;-74
2021/04/29 11:45:07;;;;;;;1.13;1.02;;;;;;;;;;5098337;28;20166;-74
2021/04/29 11:47:33;;;;;;;1.60;1.48;;;;;;;;;;5099746;28;20035;-73
2021/04/29 11:49:59;;;;;;;1.23;1.13;;;;;;;;;;5098124;28;20042;-74
2021/04/29 11:52:26;;;;;;;4.40;2.03;;;;;;;;;;5096563;28;20059;-74
2021/04/29 11:54:52;;;;;;;1.95;1.50;;;;;;;;;;5098536;28;21002;-74
2021/04/29 11:57:18;;;;;;;2.05;1.35;;;;;;;;;;5100294;28;20089;-74
2021/04/29 11:59:49;;;;;;;1.35;1.23;;;;;;;;;;5098925;27;20030;-74
2021/04/29 12:02:16;;;;;;;3.22;1.65;;;;;;;;;;5095396;27;20404;-76
2021/04/29 12:04:44;;;;;;;2.22;1.40;;;;;;;;;;5098913;28;20028;-78
2021/04/29 12:07:10;;;;;;;2.45;1.55;;;;;;;;;;5098386;28;20027;-76
2021/04/29 12:09:36;;;;;;;6.75;1.52;;;;;;;;;;5098302;28;20041;-74
2021/04/29 12:12:16;;;;;;;2.00;1.70;;;;;;;;;;5096394;28;20461;-76
2021/04/29 12:14:49;;;;;;;6.55;1.77;;;;;;;;;;5096905;28;20022;-76
2021/04/29 12:17:16;;;;;;;4.28;1.08;;;;;;;;;;5099093;28;20024;-76
2021/04/29 12:19:46;;;;;;;4.00;1.85;;;;;;;;;;5090218;28;20050;-75
2021/04/29 12:22:13;;;;;;;2.00;1.10;;;;;;;;;;5094653;28;20024;-76
2021/04/29 12:24:43;;;;;;;3.08;1.67;;;;;;;;;;5098873;28;20093;-74
2021/04/29 12:27:22;;;;;;;1.35;1.05;;;;;;;;;;5100029;28;20043;-76
2021/04/29 12:30:02;;;;;;;1.30;1.13;;;;;;;;;;5095512;28;20058;-76
2021/04/29 12:32:38;;;;;;;2.20;1.27;;;;;;;;;;5097938;28;20036;-79
2021/04/29 12:35:05;;;;;;;1.77;1.30;;;;;;;;;;5098914;28;20027;-80
2021/04/29 12:37:31;;;;;;;3.80;1.45;;;;;;;;;;5079784;28;20067;-79
2021/04/29 12:39:58;;;;;;;2.75;1.55;;;;;;;;;;5098837;28;20127;-80
2021/04/29 12:42:24;;;;;;;0.90;0.77;;;;;;;;;;5097773;28;20053;-79
2021/04/29 12:45:03;;;;;;;1.25;1.15;;;;;;;;;;5098032;28;20027;-80
2021/04/29 12:47:31;;;;;;;2.15;1.27;;;;;;;;;;5098034;28;20034;-80
2021/04/29 12:49:58;;;;;;;1.58;1.48;;;;;;;;;;5098449;28;20027;-77
2021/04/29 12:52:25;;;;;;;1.95;1.73;;;;;;;;;;5097197;28;20524;-77
2021/04/29 12:54:53;;;;;;;1.33;0.80;;;;;;;;;;5097612;28;20064;-74
2021/04/29 12:57:26;;;;;;;1.15;0.98;;;;;;;;;;5097865;28;20028;-73
2021/04/29 12:59:53;;;;;;;1.67;1.58;;;;;;;;;;5097540;28;20040;-74
2021/04/29 13:02:20;;;;;;;2.38;1.17;;;;;;;;;;5095090;28;20028;-74
2021/04/29 13:04:46;;;;;;;1.52;0.98;;;;;;;;;;5097388;28;20040;-74
2021/04/29 13:07:21;;;;;;;1.85;0.93;;;;;;;;;;5098078;28;20590;-74
2021/04/29 13:09:49;;;;;;;1.05;0.73;;;;;;;;;;5093967;28;20032;-75
2021/04/29 13:12:17;;;;;;;1.13;0.93;;;;;;;;;;5096749;28;20035;-75
2021/04/29 13:14:44;;;;;;;1.23;0.90;;;;;;;;;;5077524;28;20437;-74
2021/04/29 13:17:14;;;;;;;0.90;0.90;;;;;;;;;;5099357;28;20027;-75
2021/04/29 13:19:43;;;;;;;1.25;1.17;;;;;;;;;;5097380;28;20046;-75
2021/04/29 13:22:10;;;;;;;3.25;1.80;;;;;;;;;;5096364;28;20023;-76
2021/04/29 13:24:36;;;;;;;1.15;0.88;;;;;;;;;;5098671;28;20028;-75
2021/04/29 13:27:02;;;;;;;1.60;1.50;;;;;;;;;;5098501;28;20019;-75
2021/04/29 13:29:29;;;;;;;1.70;0.90;;;;;;;;;;5098995;28;20046;-76
2021/04/29 13:31:55;;;;;;;2.10;1.33;;;;;;;;;;5095972;28;20038;-76
2021/04/29 13:34:21;;;;;;;1.52;1.27;;;;;;;;;;5098927;28;20039;-76
2021/04/29 13:36:47;;;;;;;0.85;0.82;;;;;;;;;;5098012;28;20383;-75
2021/04/29 13:39:13;;;;;;;1.50;0.90;;;;;;;;;;5097851;28;20047;-76
2021/04/29 13:41:44;;;;;;;1.35;1.20;;;;;;;;;;5094533;28;20693;-75
2021/04/29 13:44:10;;;;;;;1.13;1.00;;;;;;;;;;5098236;28;20032;-75
2021/04/29 13:46:36;;;;;;;3.80;1.02;;;;;;;;;;5098107;28;20071;-74
2021/04/29 13:49:02;;;;;;;1.80;1.30;;;;;;;;;;5098052;28;20019;-75
2021/04/29 13:51:29;;;;;;;1.55;1.45;;;;;;;;;;5094295;28;20035;-75
2021/04/29 13:53:55;;;;;;;2.22;1.60;;;;;;;;;;5096580;28;20039;-75
2021/04/29 13:56:21;;;;;;;2.85;1.40;;;;;;;;;;5097707;28;20028;-75
2021/04/29 13:58:47;;;;;;;1.70;1.27;;;;;;;;;;5098819;28;20123;-72
2021/04/29 14:01:14;;;;;;;4.32;1.65;;;;;;;;;;5098481;28;20505;-75
2021/04/29 14:03:40;;;;;;;2.17;1.70;;;;;;;;;;5098794;28;20075;-74
2021/04/29 14:06:07;;;;;;;1.55;1.45;;;;;;;;;;5099044;28;20046;-75
2021/04/29 14:08:34;;;;;;;2.17;1.73;;;;;;;;;;5099330;28;20051;-75
2021/04/29 14:11:01;;;;;;;1.88;1.52;;;;;;;;;;5095610;28;20172;-75
2021/04/29 14:13:27;;;;;;;3.33;1.73;;;;;;;;;;5096108;28;20036;-75
2021/04/29 14:15:54;;;;;;;2.92;1.98;;;;;;;;;;5097039;28;20154;-76
2021/04/29 14:18:20;;;;;;;2.88;1.63;;;;;;;;;;5096569;28;20055;-75
2021/04/29 14:20:47;;;;;;;2.15;1.90;;;;;;;;;;5097174;28;20463;-75
2021/04/29 14:23:14;;;;;;;2.90;2.25;;;;;;;;;;5092511;28;21043;-75
2021/04/29 14:25:40;;;;;;;6.45;1.77;;;;;;;;;;5099024;28;20092;-75
2021/04/29 14:28:06;;;;;;;3.10;2.08;;;;;;;;;;5101280;28;20031;-74
2021/04/29 14:30:33;;;;;;;1.83;1.70;;;;;;;;;;5099828;28;20032;-75
2021/04/29 14:32:59;;;;;;;5.28;1.67;;;;;;;;;;5085930;28;20886;-75
2021/04/29 14:35:25;;;;;;;1.58;1.45;;;;;;;;;;5091001;28;20036;-79
2021/04/29 14:37:51;;;;;;;2.30;1.80;;;;;;;;;;5079291;28;20045;-74
2021/04/29 14:40:18;;;;;;;3.10;1.38;;;;;;;;;;5100776;28;20115;-73
2021/04/29 14:42:45;;;;;;;3.55;2.13;;;;;;;;;;5090938;28;20040;-73